createdAt,value
2023-03-29T00:00:44.720Z,-2.47
2023-03-29T00:03:14.011Z,-2.34
2023-03-29T00:05:42.459Z,-2.27
2023-03-29T00:08:14.632Z,-2.21
2023-03-29T00:10:43.190Z,-2.17
2023-03-29T00:13:11.316Z,-2.05
2023-03-29T00:15:39.777Z,-2.06
2023-03-29T00:18:07.866Z,-2.11
2023-03-29T00:20:36.265Z,-2.17
2023-03-29T00:23:04.624Z,-2.12
2023-03-29T00:25:34.740Z,-2.19
2023-03-29T00:28:03.096Z,-2.17
2023-03-29T00:30:31.377Z,-2.13
2023-03-29T00:32:59.481Z,-2.18
2023-03-29T00:35:27.722Z,-2.17
2023-03-29T00:37:57.898Z,-2.24
2023-03-29T00:40:26.857Z,-2.19
2023-03-29T00:42:58.223Z,-2.17
2023-03-29T00:45:30.521Z,-2.20
2023-03-29T00:48:03.333Z,-2.15
2023-03-29T00:50:36.483Z,-2.05
2023-03-29T00:53:08.731Z,-2.21
2023-03-29T00:55:40.311Z,-2.23
2023-03-29T00:58:14.085Z,-2.18
2023-03-29T01:00:49.949Z,-2.20
2023-03-29T01:03:24.816Z,-2.12
2023-03-29T01:05:58.065Z,-2.15
2023-03-29T01:08:30.971Z,-2.19
2023-03-29T01:11:06.806Z,-2.20
2023-03-29T01:13:42.745Z,-2.18
2023-03-29T01:16:13.180Z,-2.15
2023-03-29T01:18:42.646Z,-2.08
2023-03-29T01:21:23.664Z,-2.27
2023-03-29T01:24:08.866Z,-2.33
2023-03-29T01:26:46.820Z,-2.25
2023-03-29T01:29:22.624Z,-2.29
2023-03-29T01:31:55.911Z,-2.37
2023-03-29T01:34:27.751Z,-2.43
2023-03-29T01:37:02.027Z,-2.35
2023-03-29T01:39:30.970Z,-2.36
2023-03-29T01:42:09.244Z,-2.26
2023-03-29T01:44:45.881Z,-2.35
2023-03-29T01:47:20.876Z,-2.27
2023-03-29T01:49:59.109Z,-2.33
2023-03-29T01:52:33.374Z,-2.33
2023-03-29T01:55:09.946Z,-2.42
2023-03-29T01:57:42.002Z,-2.33
2023-03-29T02:00:17.710Z,-2.37
2023-03-29T02:02:47.433Z,-2.36
2023-03-29T02:05:17.923Z,-2.37
2023-03-29T02:07:48.775Z,-2.29
2023-03-29T02:10:18.638Z,-2.32
2023-03-29T02:12:46.841Z,-2.23
2023-03-29T02:15:20.705Z,-2.23
2023-03-29T02:17:51.186Z,-2.27
2023-03-29T02:20:22.746Z,-2.12
2023-03-29T02:22:59.806Z,-2.25
2023-03-29T02:25:28.007Z,-2.20
2023-03-29T02:27:57.230Z,-2.19
2023-03-29T02:30:31.952Z,-2.22
2023-03-29T02:33:07.929Z,-2.16
2023-03-29T02:35:43.474Z,-1.98
2023-03-29T02:38:12.455Z,-1.78
2023-03-29T02:40:44.170Z,-1.63
2023-03-29T02:43:14.265Z,-1.49
2023-03-29T02:45:46.420Z,-1.46
2023-03-29T02:48:19.803Z,-1.40
2023-03-29T02:50:52.251Z,-1.51
2023-03-29T02:53:24.696Z,-1.60
2023-03-29T02:55:53.980Z,-1.63
2023-03-29T02:58:28.904Z,-1.42
2023-03-29T03:01:02.863Z,-1.40
2023-03-29T03:03:31.876Z,-1.58
2023-03-29T03:06:02.652Z,-1.62
2023-03-29T03:08:32.312Z,-1.58
2023-03-29T03:11:01.084Z,-1.54
2023-03-29T03:13:29.608Z,-1.54
2023-03-29T03:15:59.455Z,-1.42
2023-03-29T03:18:27.779Z,-1.52
2023-03-29T03:20:57.150Z,-1.55
2023-03-29T03:23:26.237Z,-1.56
2023-03-29T03:25:55.325Z,-1.52
2023-03-29T03:28:25.194Z,-1.56
2023-03-29T03:30:54.523Z,-1.50
2023-03-29T03:33:43.231Z,-1.54
2023-03-29T03:36:31.637Z,-1.61
2023-03-29T03:39:00.417Z,-1.49
2023-03-29T03:41:28.861Z,-1.29
2023-03-29T03:43:57.433Z,-1.14
2023-03-29T03:46:26.272Z,-1.04
2023-03-29T03:48:59.492Z,-1.01
2023-03-29T03:51:33.467Z,-1.13
2023-03-29T03:54:02.044Z,-1.11
2023-03-29T03:56:53.320Z,-1.04
2023-03-29T03:59:50.719Z,-0.97
2023-03-29T04:02:27.018Z,-1.04
2023-03-29T04:04:56.811Z,-1.12
2023-03-29T04:07:31.586Z,-1.07
2023-03-29T04:10:28.702Z,-1.14
2023-03-29T04:13:09.697Z,-1.18
2023-03-29T04:16:00.151Z,-1.02
2023-03-29T04:18:29.883Z,-1.10
2023-03-29T04:21:02.785Z,-1.08
2023-03-29T04:23:33.853Z,-1.04
2023-03-29T04:26:01.917Z,-0.97
2023-03-29T04:28:53.546Z,-0.79
2023-03-29T04:31:28.367Z,-0.80
2023-03-29T04:34:35.132Z,-0.93
2023-03-29T04:37:10.604Z,-0.78
2023-03-29T04:39:39.590Z,-0.94
2023-03-29T04:42:09.578Z,-1.00
2023-03-29T04:44:38.287Z,-0.86
2023-03-29T04:47:12.025Z,-0.71
2023-03-29T04:49:49.777Z,-0.84
2023-03-29T04:52:27.418Z,-0.95
2023-03-29T04:54:56.465Z,-0.91
2023-03-29T04:57:27.239Z,-0.90
2023-03-29T05:00:27.369Z,-0.55
2023-03-29T05:02:55.905Z,-0.45
2023-03-29T05:05:24.212Z,-0.58
2023-03-29T05:07:54.999Z,-0.70
2023-03-29T05:10:29.564Z,-0.44
2023-03-29T05:12:58.514Z,-0.55
2023-03-29T05:15:27.249Z,-0.47
2023-03-29T05:17:57.231Z,-0.51
2023-03-29T05:20:25.949Z,-0.42
2023-03-29T05:22:56.054Z,-0.42
2023-03-29T05:25:44.068Z,-0.41
2023-03-29T05:28:13.601Z,-0.30
2023-03-29T05:30:49.962Z,-0.05
2023-03-29T05:33:22.241Z,-0.11
2023-03-29T05:35:50.830Z,0.09
2023-03-29T05:38:20.446Z,0.40
2023-03-29T05:40:50.062Z,0.64
2023-03-29T05:43:47.631Z,0.61
2023-03-29T05:46:16.860Z,0.55
2023-03-29T05:48:51.715Z,0.51
2023-03-29T05:51:24.496Z,0.56
2023-03-29T05:53:57.538Z,0.62
2023-03-29T05:56:27.046Z,0.69
2023-03-29T05:58:57.007Z,0.81
2023-03-29T06:01:25.931Z,0.84
2023-03-29T06:04:03.960Z,0.82
2023-03-29T06:06:43.459Z,1.13
2023-03-29T06:09:13.719Z,1.02
2023-03-29T06:11:52.996Z,1.04
2023-03-29T06:14:43.711Z,1.22
2023-03-29T06:17:22.528Z,1.33
2023-03-29T06:19:53.229Z,1.36
2023-03-29T06:22:25.105Z,1.30
2023-03-29T06:24:55.273Z,1.19
2023-03-29T06:27:28.029Z,1.23
2023-03-29T06:29:57.775Z,1.22
2023-03-29T06:32:26.470Z,0.96
2023-03-29T06:35:02.614Z,0.98
2023-03-29T06:37:39.196Z,1.01
2023-03-29T06:40:23.033Z,1.08
2023-03-29T06:42:57.781Z,1.19
2023-03-29T06:45:36.450Z,0.97
2023-03-29T06:48:10.174Z,1.00
2023-03-29T06:50:38.685Z,1.18
2023-03-29T06:53:11.708Z,1.43
2023-03-29T06:55:43.119Z,1.79
2023-03-29T06:58:40.837Z,2.13
2023-03-29T07:01:29.727Z,2.40
2023-03-29T07:04:09.448Z,2.12
2023-03-29T07:07:02.648Z,1.67
2023-03-29T07:09:36.095Z,1.76
2023-03-29T07:12:25.019Z,1.88
2023-03-29T07:14:57.026Z,2.12
2023-03-29T07:17:30.084Z,2.81
2023-03-29T07:19:58.988Z,3.31
2023-03-29T07:22:45.858Z,3.59
2023-03-29T07:25:15.876Z,3.30
2023-03-29T07:27:47.288Z,3.25
2023-03-29T07:30:18.669Z,3.30
2023-03-29T07:32:47.552Z,3.15
2023-03-29T07:35:30.873Z,3.10
2023-03-29T07:37:59.750Z,3.26
2023-03-29T07:40:29.714Z,2.91
2023-03-29T07:42:59.920Z,2.49
2023-03-29T07:45:32.681Z,2.40
2023-03-29T07:48:05.790Z,2.65
2023-03-29T07:50:50.893Z,2.90
2023-03-29T07:53:23.211Z,3.09
2023-03-29T07:55:54.923Z,3.12
2023-03-29T07:58:43.028Z,3.19
2023-03-29T08:01:18.746Z,3.30
2023-03-29T08:04:10.731Z,3.63
2023-03-29T08:06:59.580Z,3.02
2023-03-29T08:09:43.385Z,3.00
2023-03-29T08:12:12.040Z,2.88
2023-03-29T08:14:42.096Z,2.67
2023-03-29T08:17:31.022Z,2.61
2023-03-29T08:19:59.274Z,2.86
2023-03-29T08:22:28.485Z,2.76
2023-03-29T08:25:23.304Z,2.85
2023-03-29T08:27:54.408Z,2.85
2023-03-29T08:30:33.443Z,2.76
2023-03-29T08:33:03.559Z,2.87
2023-03-29T08:35:32.397Z,2.78
2023-03-29T08:38:12.580Z,2.65
2023-03-29T08:40:41.475Z,2.65
2023-03-29T08:43:24.093Z,2.42
2023-03-29T08:46:34.236Z,2.17
2023-03-29T08:49:13.493Z,2.18
2023-03-29T08:51:47.195Z,2.13
2023-03-29T08:54:27.418Z,2.21
2023-03-29T08:57:18.113Z,2.06
2023-03-29T08:59:53.820Z,2.20
2023-03-29T09:02:27.371Z,2.27
2023-03-29T09:05:10.261Z,2.16
2023-03-29T09:07:42.789Z,2.27
2023-03-29T09:10:14.556Z,2.23
2023-03-29T09:13:01.490Z,2.41
2023-03-29T09:15:48.649Z,2.58
2023-03-29T09:18:38.040Z,2.53
2023-03-29T09:21:16.256Z,2.54
2023-03-29T09:24:04.184Z,2.75
2023-03-29T09:26:47.765Z,2.80
2023-03-29T09:29:42.373Z,2.72
2023-03-29T09:32:19.356Z,2.90
2023-03-29T09:35:00.157Z,2.90
2023-03-29T09:37:34.462Z,2.80
2023-03-29T09:40:11.411Z,2.65
2023-03-29T09:43:10.081Z,2.68
2023-03-29T09:45:40.293Z,2.84
2023-03-29T09:48:13.770Z,2.71
2023-03-29T09:50:51.408Z,2.64
2023-03-29T09:53:22.582Z,2.87
2023-03-29T09:56:03.108Z,2.95
2023-03-29T09:58:44.924Z,2.99
2023-03-29T10:01:19.165Z,2.76
2023-03-29T10:03:51.677Z,2.90
2023-03-29T10:06:25.672Z,3.27
2023-03-29T10:09:01.407Z,3.29
2023-03-29T10:11:46.749Z,3.17
2023-03-29T10:14:19.541Z,3.06
2023-03-29T10:16:48.152Z,3.17
2023-03-29T10:19:19.734Z,3.36
2023-03-29T10:21:50.443Z,3.15
2023-03-29T10:24:23.238Z,3.11
2023-03-29T10:26:55.751Z,3.30
2023-03-29T10:29:25.571Z,3.15
2023-03-29T10:31:54.409Z,3.43
2023-03-29T10:34:28.182Z,3.55
2023-03-29T10:37:01.544Z,3.61
2023-03-29T10:39:35.063Z,3.30
2023-03-29T10:42:05.512Z,3.27
2023-03-29T10:44:36.708Z,3.13
2023-03-29T10:47:16.211Z,3.24
2023-03-29T10:49:47.050Z,3.43
2023-03-29T10:52:18.338Z,3.21
2023-03-29T10:54:47.350Z,3.29
2023-03-29T10:57:22.882Z,3.10
2023-03-29T11:00:01.148Z,3.10
2023-03-29T11:02:57.409Z,3.02
2023-03-29T11:05:33.714Z,2.79
2023-03-29T11:08:20.785Z,2.58
2023-03-29T11:11:01.296Z,2.60
2023-03-29T11:13:39.014Z,2.43
2023-03-29T11:16:16.727Z,2.59
2023-03-29T11:19:15.374Z,2.65
2023-03-29T11:21:52.630Z,2.71
2023-03-29T11:24:36.659Z,2.67
2023-03-29T11:27:17.586Z,2.64
2023-03-29T11:29:57.171Z,2.56
2023-03-29T11:32:33.615Z,2.53
2023-03-29T11:35:14.769Z,2.72
2023-03-29T11:37:50.835Z,2.78
2023-03-29T11:40:36.747Z,2.84
2023-03-29T11:43:10.461Z,3.10
2023-03-29T11:45:44.409Z,3.03
2023-03-29T11:48:21.351Z,3.14
2023-03-29T11:50:54.525Z,3.05
2023-03-29T11:53:28.572Z,3.03
2023-03-29T11:56:04.933Z,3.01
2023-03-29T11:58:38.994Z,3.22
2023-03-29T12:01:11.456Z,3.19
2023-03-29T12:03:46.768Z,3.16
2023-03-29T12:06:46.047Z,3.05
2023-03-29T12:09:25.658Z,2.91
2023-03-29T12:12:03.149Z,2.89
2023-03-29T12:14:48.928Z,2.93
2023-03-29T12:17:21.753Z,3.06
2023-03-29T12:19:56.760Z,3.09
2023-03-29T12:22:25.034Z,3.07
2023-03-29T12:24:57.624Z,3.27
2023-03-29T12:27:31.093Z,3.16
2023-03-29T12:30:32.528Z,3.38
2023-03-29T12:33:46.988Z,3.30
2023-03-29T12:37:11.714Z,3.34
2023-03-29T12:39:41.093Z,3.28
2023-03-29T12:42:29.528Z,3.26
2023-03-29T12:45:21.376Z,3.14
2023-03-29T12:47:52.941Z,3.27
2023-03-29T12:50:28.712Z,3.31
2023-03-29T12:53:05.220Z,3.60
2023-03-29T12:55:36.236Z,3.57
2023-03-29T12:58:08.813Z,3.62
2023-03-29T13:00:45.787Z,3.77
2023-03-29T13:03:29.599Z,3.73
2023-03-29T13:06:02.759Z,3.80
2023-03-29T13:08:36.535Z,3.91
2023-03-29T13:11:06.423Z,3.76
2023-03-29T13:13:38.028Z,3.97
2023-03-29T13:16:15.072Z,4.09
2023-03-29T13:18:56.081Z,3.85
2023-03-29T13:21:33.478Z,3.86
2023-03-29T13:24:11.259Z,3.96
2023-03-29T13:26:51.019Z,3.87
2023-03-29T13:29:38.143Z,3.89
2023-03-29T13:32:26.015Z,4.00
2023-03-29T13:35:02.929Z,4.07
2023-03-29T13:37:42.577Z,4.04
2023-03-29T13:40:33.264Z,3.86
2023-03-29T13:43:09.334Z,4.02
2023-03-29T13:45:40.642Z,4.18
2023-03-29T13:48:23.850Z,4.07
2023-03-29T13:50:57.722Z,4.01
2023-03-29T13:53:31.023Z,4.03
2023-03-29T13:56:00.882Z,4.08
2023-03-29T13:58:39.233Z,4.25
2023-03-29T14:01:14.632Z,4.12
2023-03-29T14:03:46.539Z,4.12
2023-03-29T14:06:19.247Z,4.30
2023-03-29T14:08:49.710Z,4.29
2023-03-29T14:11:24.365Z,4.24
2023-03-29T14:13:58.886Z,4.33
2023-03-29T14:16:32.333Z,4.31
2023-03-29T14:19:04.101Z,4.55
2023-03-29T14:21:32.397Z,4.77
2023-03-29T14:24:03.628Z,4.84
2023-03-29T14:26:33.375Z,4.96
2023-03-29T14:29:03.796Z,5.21
2023-03-29T14:31:35.585Z,5.59
2023-03-29T14:34:07.270Z,5.48
2023-03-29T14:36:37.651Z,5.22
2023-03-29T14:39:13.872Z,5.32
2023-03-29T14:41:48.353Z,5.39
2023-03-29T14:44:18.855Z,5.53
2023-03-29T14:46:48.260Z,5.56
2023-03-29T14:49:19.033Z,5.39
2023-03-29T14:51:48.299Z,5.54
2023-03-29T14:54:20.956Z,5.68
2023-03-29T14:56:50.132Z,5.97
2023-03-29T14:59:27.267Z,6.01
2023-03-29T15:01:57.090Z,5.87
2023-03-29T15:04:34.094Z,5.78
2023-03-29T15:07:04.359Z,5.94
2023-03-29T15:09:35.121Z,5.99
2023-03-29T15:12:04.524Z,6.04
2023-03-29T15:14:35.522Z,6.00
2023-03-29T15:17:07.179Z,5.94
2023-03-29T15:19:37.879Z,5.96
2023-03-29T15:22:11.326Z,5.78
2023-03-29T15:24:45.607Z,5.79
2023-03-29T15:27:17.084Z,5.85
2023-03-29T15:29:48.141Z,6.11
2023-03-29T15:32:25.137Z,6.48
2023-03-29T15:35:00.923Z,6.82
2023-03-29T15:37:30.228Z,7.03
2023-03-29T15:39:59.342Z,6.90
2023-03-29T15:42:27.663Z,6.76
2023-03-29T15:44:57.666Z,6.52
2023-03-29T15:47:28.097Z,6.19
2023-03-29T15:49:57.407Z,6.46
2023-03-29T15:52:25.814Z,7.12
2023-03-29T15:54:54.207Z,7.06
2023-03-29T15:57:22.595Z,6.68
2023-03-29T15:59:50.955Z,6.72
2023-03-29T16:02:24.387Z,6.84
2023-03-29T16:04:54.488Z,6.57
2023-03-29T16:07:23.000Z,6.63
2023-03-29T16:09:51.579Z,6.06
2023-03-29T16:12:20.138Z,6.11
2023-03-29T16:14:48.349Z,5.76
2023-03-29T16:17:16.714Z,5.29
2023-03-29T16:19:45.324Z,5.23
2023-03-29T16:22:14.978Z,5.22
2023-03-29T16:24:43.833Z,5.31
2023-03-29T16:27:12.410Z,5.25
2023-03-29T16:29:40.644Z,5.03
2023-03-29T16:32:09.038Z,4.95
2023-03-29T16:34:38.173Z,4.98
2023-03-29T16:37:06.574Z,5.06
2023-03-29T16:39:38.013Z,5.10
2023-03-29T16:42:06.446Z,5.14
2023-03-29T16:44:34.767Z,5.08
2023-03-29T16:47:03.214Z,5.08
2023-03-29T16:49:40.118Z,4.90
2023-03-29T16:52:08.952Z,4.82
2023-03-29T16:54:38.808Z,4.70
2023-03-29T16:57:07.845Z,4.72
2023-03-29T16:59:37.050Z,4.70
2023-03-29T17:02:13.731Z,4.58
2023-03-29T17:04:46.617Z,4.46
2023-03-29T17:07:15.696Z,4.38
2023-03-29T17:09:46.849Z,4.37
2023-03-29T17:12:16.100Z,4.37
2023-03-29T17:15:10.137Z,4.27
2023-03-29T17:18:05.393Z,4.15
2023-03-29T17:20:34.584Z,4.02
2023-03-29T17:23:04.786Z,3.98
2023-03-29T17:25:34.602Z,4.03
2023-03-29T17:28:03.017Z,3.99
2023-03-29T17:30:31.577Z,4.03
2023-03-29T17:33:00.214Z,4.03
2023-03-29T17:35:28.447Z,4.07
2023-03-29T17:37:57.766Z,4.12
2023-03-29T17:40:27.165Z,4.09
2023-03-29T17:42:57.305Z,4.05
2023-03-29T17:45:26.498Z,4.00
2023-03-29T17:47:55.205Z,4.02
2023-03-29T17:50:23.630Z,4.00
2023-03-29T17:52:52.003Z,4.11
2023-03-29T17:55:21.134Z,4.13
2023-03-29T17:57:50.162Z,4.11
2023-03-29T18:00:29.887Z,4.16
2023-03-29T18:02:58.994Z,4.18
2023-03-29T18:05:27.786Z,4.23
2023-03-29T18:07:56.930Z,4.19
2023-03-29T18:10:25.406Z,4.24
2023-03-29T18:12:54.994Z,4.24
2023-03-29T18:15:25.040Z,4.26
2023-03-29T18:17:53.476Z,4.21
2023-03-29T18:20:22.032Z,4.21
2023-03-29T18:22:50.745Z,4.23
2023-03-29T18:25:20.180Z,4.20
2023-03-29T18:27:50.407Z,4.21
2023-03-29T18:30:18.941Z,4.23
2023-03-29T18:32:48.960Z,4.24
2023-03-29T18:35:17.226Z,4.24
2023-03-29T18:37:46.557Z,4.28
2023-03-29T18:40:15.656Z,4.30
2023-03-29T18:42:44.082Z,4.26
2023-03-29T18:45:13.631Z,4.28
2023-03-29T18:47:42.004Z,4.31
2023-03-29T18:50:13.562Z,4.25
2023-03-29T18:52:42.089Z,4.28
2023-03-29T18:55:10.798Z,4.26
2023-03-29T18:57:38.906Z,4.29
2023-03-29T19:00:12.793Z,4.25
2023-03-29T19:02:41.975Z,4.24
2023-03-29T19:05:12.138Z,4.25
2023-03-29T19:07:41.564Z,4.22
2023-03-29T19:10:10.607Z,4.18
2023-03-29T19:12:39.522Z,4.17
2023-03-29T19:15:34.965Z,4.17
2023-03-29T19:18:03.750Z,4.18
2023-03-29T19:20:33.313Z,4.15
2023-03-29T19:23:01.789Z,4.05
2023-03-29T19:25:30.339Z,3.96
2023-03-29T19:28:00.781Z,4.00
2023-03-29T19:30:28.917Z,4.00
2023-03-29T19:32:57.083Z,4.03
2023-03-29T19:35:25.680Z,4.11
2023-03-29T19:37:55.528Z,4.24
2023-03-29T19:40:24.110Z,4.32
2023-03-29T19:42:52.236Z,4.31
2023-03-29T19:45:21.635Z,4.31
2023-03-29T19:47:55.592Z,4.34
2023-03-29T19:50:24.314Z,4.30
2023-03-29T19:52:54.599Z,4.32
2023-03-29T19:55:25.522Z,4.34
2023-03-29T19:57:53.876Z,4.40
2023-03-29T20:00:25.126Z,4.40
2023-03-29T20:02:55.694Z,4.32
2023-03-29T20:05:24.228Z,4.27
2023-03-29T20:07:54.337Z,4.26
2023-03-29T20:10:22.471Z,4.22
2023-03-29T20:12:52.189Z,4.17
2023-03-29T20:15:20.968Z,4.11
2023-03-29T20:17:51.434Z,4.25
2023-03-29T20:20:21.320Z,4.16
2023-03-29T20:22:49.583Z,4.13
2023-03-29T20:25:18.225Z,3.99
2023-03-29T20:27:49.018Z,3.82
2023-03-29T20:30:19.100Z,3.80
2023-03-29T20:32:47.381Z,3.80
2023-03-29T20:35:15.564Z,3.78
2023-03-29T20:37:43.750Z,3.87
2023-03-29T20:40:13.067Z,3.86
2023-03-29T20:42:41.258Z,3.75
2023-03-29T20:45:18.426Z,3.65
2023-03-29T20:47:57.577Z,3.64
2023-03-29T20:50:30.356Z,3.51
2023-03-29T20:53:03.770Z,3.40
2023-03-29T20:55:33.548Z,3.35
2023-03-29T20:58:03.524Z,3.36
2023-03-29T21:00:35.518Z,3.53
2023-03-29T21:03:05.243Z,3.67
2023-03-29T21:05:35.036Z,3.67
2023-03-29T21:08:04.465Z,3.76
2023-03-29T21:10:32.989Z,3.68
2023-03-29T21:13:02.883Z,3.62
2023-03-29T21:15:32.047Z,3.56
2023-03-29T21:18:00.677Z,3.55
2023-03-29T21:20:32.307Z,3.67
